Time;durP1;ratioP1;P1;durP2;ratioP2;P2;SDS_P1;SDS_P2;PMS_P1;PMS_P2;Temp;Humidity;BMP_temperature;BMP_pressure;BME280_temperature;BME280_humidity;BME280_pressure;Samples;Min_cycle;Max_cycle;Signal;HPM_P1;HPM_P2
2021/11/10 00:00:15;;;;;;;52.50;24.27;;;2.50;99.90;;;;;;5016435;28;20056;-73
2021/11/10 00:02:41;;;;;;;52.88;25.35;;;2.50;99.90;;;;;;5016409;28;20030;-73
2021/11/10 00:05:08;;;;;;;46.58;23.17;;;2.40;99.90;;;;;;5016296;28;20029;-73
2021/11/10 00:07:34;;;;;;;52.35;23.40;;;2.40;99.90;;;;;;5016294;28;20018;-73
2021/11/10 00:10:00;;;;;;;47.35;22.40;;;2.40;99.90;;;;;;5014730;28;20061;-73
2021/11/10 00:12:26;;;;;;;43.45;22.00;;;2.30;99.90;;;;;;5016225;28;20073;-73
2021/11/10 00:14:51;;;;;;;44.17;20.90;;;2.30;99.90;;;;;;5016097;28;20097;-73
2021/11/10 00:17:17;;;;;;;44.60;23.05;;;2.20;99.90;;;;;;5016151;28;20028;-73
2021/11/10 00:19:43;;;;;;;45.22;21.38;;;2.30;99.90;;;;;;5015990;28;20105;-73
2021/11/10 00:22:08;;;;;;;46.08;19.83;;;2.30;99.90;;;;;;5016093;28;20546;-73
2021/11/10 00:24:34;;;;;;;46.45;21.52;;;2.30;99.90;;;;;;5014653;28;20055;-73
2021/11/10 00:27:00;;;;;;;38.95;20.00;;;2.20;99.90;;;;;;5014699;28;20044;-73
2021/11/10 00:29:25;;;;;;;53.85;23.45;;;2.20;99.90;;;;;;5015764;28;20033;-73
2021/11/10 00:31:51;;;;;;;46.55;24.00;;;2.20;99.90;;;;;;5016183;28;20026;-73
2021/11/10 00:34:17;;;;;;;88.13;48.58;;;2.20;99.90;;;;;;5032836;28;20056;-73
2021/11/10 00:36:44;;;;;;;119.18;66.68;;;2.10;99.90;;;;;;5014517;28;20018;-73
2021/11/10 00:39:09;;;;;;;61.13;31.02;;;2.10;99.90;;;;;;5015755;28;20038;-73
2021/11/10 00:41:35;;;;;;;45.60;24.70;;;2.10;99.90;;;;;;5014379;28;20391;-73
2021/11/10 00:44:01;;;;;;;41.50;22.08;;;2.10;99.90;;;;;;5026084;28;20419;-73
2021/11/10 00:46:29;;;;;;;42.40;22.02;;;2.10;99.90;;;;;;5035288;28;20017;-73
2021/11/10 00:48:54;;;;;;;44.92;22.45;;;2.10;99.90;;;;;;5035316;28;20032;-73
2021/11/10 00:51:20;;;;;;;53.60;23.15;;;2.10;99.90;;;;;;5035135;28;20041;-73
2021/11/10 00:53:45;;;;;;;50.88;23.65;;;2.10;99.90;;;;;;5035225;28;20487;-73
2021/11/10 00:56:11;;;;;;;44.92;24.17;;;2.00;99.90;;;;;;5035279;28;20021;-73
2021/11/10 00:58:37;;;;;;;45.53;24.15;;;2.00;99.90;;;;;;5035044;28;20025;-73
2021/11/10 01:01:03;;;;;;;41.88;21.88;;;2.00;99.90;;;;;;5035095;28;20059;-73
2021/11/10 01:03:28;;;;;;;44.25;20.42;;;2.00;99.90;;;;;;5035035;28;20026;-73
2021/11/10 01:05:55;;;;;;;40.22;18.83;;;1.90;99.90;;;;;;5034927;28;20027;-73
2021/11/10 01:08:21;;;;;;;41.95;20.35;;;1.90;99.90;;;;;;5033086;28;20023;-73
2021/11/10 01:10:48;;;;;;;39.63;18.67;;;1.90;99.90;;;;;;5015347;28;20121;-73
2021/11/10 01:13:14;;;;;;;39.17;18.33;;;1.80;99.90;;;;;;5015015;28;20026;-73
2021/11/10 01:15:42;;;;;;;44.38;21.60;;;1.80;99.90;;;;;;5013625;28;20053;-73
2021/11/10 01:18:08;;;;;;;45.25;22.58;;;1.80;99.90;;;;;;5015024;28;20387;-73
2021/11/10 01:20:34;;;;;;;44.83;20.55;;;1.80;99.90;;;;;;5014899;28;20057;-73
2021/11/10 01:22:59;;;;;;;42.80;18.98;;;1.70;99.90;;;;;;5014954;28;20057;-73
2021/11/10 01:25:26;;;;;;;57.13;25.50;;;1.70;99.90;;;;;;5014745;28;20554;-73
2021/11/10 01:27:52;;;;;;;48.25;22.77;;;1.70;99.90;;;;;;5014779;28;20034;-73
2021/11/10 01:30:18;;;;;;;41.85;22.08;;;1.70;99.90;;;;;;5014642;28;20393;-73
2021/11/10 01:32:45;;;;;;;42.85;21.90;;;1.70;99.90;;;;;;5014699;28;20025;-73
2021/11/10 01:35:11;;;;;;;40.92;22.00;;;1.70;99.90;;;;;;5013416;28;20022;-74
2021/11/10 01:37:37;;;;;;;45.63;20.85;;;1.70;99.90;;;;;;5014625;28;20026;-73
2021/11/10 01:40:04;;;;;;;40.42;21.13;;;1.70;99.90;;;;;;5014557;28;20022;-73
2021/11/10 01:42:30;;;;;;;37.95;21.45;;;1.70;99.90;;;;;;5014492;28;20386;-73
2021/11/10 01:44:57;;;;;;;45.10;20.98;;;1.70;99.90;;;;;;5014455;28;20556;-73
2021/11/10 01:47:23;;;;;;;37.22;17.33;;;1.70;99.90;;;;;;5014437;28;20014;-73
2021/11/10 01:49:49;;;;;;;35.88;18.30;;;1.70;99.90;;;;;;5014287;28;20041;-73
2021/11/10 01:52:15;;;;;;;39.00;19.60;;;1.70;99.90;;;;;;5014454;28;20435;-73
2021/11/10 01:54:41;;;;;;;42.35;19.48;;;1.60;99.90;;;;;;5013431;28;20069;-72
2021/11/10 01:57:09;;;;;;;35.95;18.98;;;1.50;99.90;;;;;;5013082;28;20040;-73
2021/11/10 01:59:42;;;;;;;37.25;19.40;;;1.50;99.90;;;;;;5014131;28;20062;-73
2021/11/10 02:02:19;;;;;;;43.15;20.13;;;1.50;99.90;;;;;;5014252;28;20028;-73
2021/11/10 02:04:47;;;;;;;39.55;19.13;;;1.50;99.90;;;;;;5014128;28;20072;-73
2021/11/10 02:07:13;;;;;;;34.40;17.83;;;1.40;99.90;;;;;;5014162;28;20026;-73
2021/11/10 02:09:41;;;;;;;42.13;20.45;;;1.40;99.90;;;;;;5013911;28;20042;-73
2021/11/10 02:12:06;;;;;;;47.60;24.20;;;1.30;99.90;;;;;;5014039;28;20033;-73
2021/11/10 02:14:32;;;;;;;45.20;24.33;;;1.30;99.90;;;;;;5012534;28;20026;-73
2021/11/10 02:16:58;;;;;;;62.95;28.60;;;1.30;99.90;;;;;;5014208;28;20025;-73
2021/11/10 02:19:25;;;;;;;44.38;21.80;;;1.30;99.90;;;;;;5013765;28;20048;-73
2021/11/10 02:21:54;;;;;;;55.17;27.00;;;1.30;99.90;;;;;;5012550;28;20034;-73
2021/11/10 02:24:22;;;;;;;46.15;23.92;;;1.20;99.90;;;;;;5013805;28;20037;-73
2021/11/10 02:26:48;;;;;;;46.55;23.63;;;1.10;99.90;;;;;;5012494;28;20506;-73
2021/11/10 02:29:20;;;;;;;51.88;23.35;;;1.00;99.90;;;;;;5013769;28;20030;-73
2021/11/10 02:31:47;;;;;;;45.92;21.83;;;0.90;99.90;;;;;;5013602;28;20042;-73
2021/11/10 02:34:13;;;;;;;46.95;21.42;;;0.90;99.90;;;;;;5013701;28;20105;-73
2021/11/10 02:36:39;;;;;;;49.63;23.40;;;0.80;99.90;;;;;;5012322;28;20152;-73
2021/11/10 02:39:17;;;;;;;46.10;22.70;;;0.80;99.90;;;;;;5013519;28;20137;-73
2021/11/10 02:41:47;;;;;;;49.90;21.17;;;0.70;99.90;;;;;;5012286;28;20041;-73
2021/11/10 02:44:18;;;;;;;40.90;20.90;;;0.60;99.90;;;;;;5013569;28;20030;-73
2021/11/10 02:46:46;;;;;;;38.95;20.80;;;0.60;99.90;;;;;;5019211;28;20056;-73
2021/11/10 02:49:12;;;;;;;36.03;18.63;;;0.50;99.90;;;;;;5033222;28;20021;-73
2021/11/10 02:51:57;;;;;;;37.58;19.10;;;0.50;99.90;;;;;;5031760;28;20040;-73
2021/11/10 02:54:24;;;;;;;42.03;19.85;;;0.40;99.90;;;;;;5031778;28;20040;-73
2021/11/10 02:56:55;;;;;;;34.50;18.20;;;0.40;99.90;;;;;;5031747;28;20443;-73
2021/11/10 02:59:21;;;;;;;33.38;18.52;;;0.40;99.90;;;;;;5033013;28;20144;-73
2021/11/10 03:01:47;;;;;;;32.38;16.60;;;0.40;99.90;;;;;;5031705;28;20025;-73
2021/11/10 03:04:23;;;;;;;33.45;17.77;;;0.40;99.90;;;;;;5032980;28;20040;-73
2021/11/10 03:06:50;;;;;;;30.77;17.10;;;0.40;99.90;;;;;;5031512;28;20025;-73
2021/11/10 03:09:21;;;;;;;36.17;18.88;;;0.40;99.90;;;;;;5032683;28;20475;-73
2021/11/10 03:11:47;;;;;;;27.58;16.88;;;0.40;99.90;;;;;;5032829;28;20041;-73
2021/11/10 03:14:14;;;;;;;33.92;16.23;;;0.40;99.90;;;;;;5032799;28;20557;-73
2021/11/10 03:16:40;;;;;;;33.58;17.48;;;0.40;99.90;;;;;;5032678;28;20060;-73
2021/11/10 03:19:06;;;;;;;31.17;15.18;;;0.40;99.90;;;;;;5031389;28;20461;-73
2021/11/10 03:21:32;;;;;;;30.40;15.75;;;0.40;99.90;;;;;;5032771;28;20106;-73
2021/11/10 03:23:58;;;;;;;32.15;18.58;;;0.40;99.90;;;;;;5032799;28;20395;-73
2021/11/10 03:26:24;;;;;;;34.92;17.23;;;0.40;99.90;;;;;;5032711;28;20026;-73
2021/11/10 03:28:50;;;;;;;29.20;17.17;;;0.40;99.90;;;;;;5032741;28;20426;-73
2021/11/10 03:31:16;;;;;;;39.30;18.77;;;0.40;99.90;;;;;;5032672;28;20044;-73
2021/11/10 03:33:42;;;;;;;33.70;15.70;;;0.30;99.90;;;;;;5032724;28;20045;-73
2021/11/10 03:36:08;;;;;;;32.45;16.33;;;0.30;99.90;;;;;;5032624;28;20053;-73
2021/11/10 03:38:33;;;;;;;32.83;16.23;;;0.30;99.90;;;;;;5032604;28;20037;-73
2021/11/10 03:40:59;;;;;;;30.27;14.85;;;0.30;99.90;;;;;;5032091;28;20390;-73
2021/11/10 03:43:25;;;;;;;35.20;15.88;;;0.30;99.90;;;;;;5032367;28;20037;-73
2021/11/10 03:45:51;;;;;;;38.70;17.65;;;0.30;99.90;;;;;;5031098;28;20108;-73
2021/11/10 03:48:17;;;;;;;33.58;16.13;;;0.40;99.90;;;;;;5031201;28;20041;-73
2021/11/10 03:50:43;;;;;;;32.70;16.63;;;0.50;99.90;;;;;;5032133;28;20490;-73
2021/11/10 03:53:09;;;;;;;35.55;17.77;;;0.50;99.90;;;;;;5032334;28;20030;-73
2021/11/10 03:55:36;;;;;;;32.45;16.95;;;0.50;99.90;;;;;;5033566;28;20506;-73
2021/11/10 03:58:03;;;;;;;34.10;15.90;;;0.50;99.90;;;;;;5029787;28;20518;-73
2021/11/10 04:00:29;;;;;;;32.83;16.25;;;0.60;99.90;;;;;;5030662;28;20032;-73
2021/11/10 04:02:54;;;;;;;39.90;18.73;;;0.50;99.90;;;;;;5030243;28;20029;-73
2021/11/10 04:05:20;;;;;;;35.15;18.15;;;0.50;99.90;;;;;;5030593;28;20030;-73
2021/11/10 04:07:46;;;;;;;29.33;14.32;;;0.50;99.90;;;;;;5024242;28;20063;-73
2021/11/10 04:10:12;;;;;;;28.60;16.60;;;0.50;99.90;;;;;;5030006;28;20212;-73
2021/11/10 04:12:38;;;;;;;28.40;16.73;;;0.50;99.90;;;;;;5021569;28;20029;-73
2021/11/10 04:15:04;;;;;;;28.55;15.18;;;0.50;99.90;;;;;;5037274;28;20027;-73
2021/11/10 04:17:30;;;;;;;25.88;13.98;;;0.50;99.90;;;;;;5016704;28;20033;-73
2021/11/10 04:19:56;;;;;;;28.45;15.02;;;0.40;99.90;;;;;;5025869;28;20025;-73
2021/11/10 04:22:23;;;;;;;28.70;15.43;;;0.40;99.90;;;;;;5033500;28;20080;-73
2021/11/10 04:24:50;;;;;;;28.10;14.27;;;0.50;99.90;;;;;;5033637;28;20021;-73
2021/11/10 04:27:18;;;;;;;33.05;17.75;;;0.50;99.90;;;;;;5017976;28;20014;-72
2021/11/10 04:29:48;;;;;;;30.48;15.50;;;0.50;99.90;;;;;;5013319;28;20025;-73
2021/11/10 04:32:15;;;;;;;34.65;16.75;;;0.50;99.90;;;;;;5024974;28;20035;-73
2021/11/10 04:34:41;;;;;;;30.73;16.77;;;0.60;99.90;;;;;;5034472;28;20112;-74
2021/11/10 04:37:10;;;;;;;25.50;15.02;;;0.60;99.90;;;;;;5025824;28;20129;-74
2021/11/10 04:39:36;;;;;;;27.65;14.43;;;0.60;99.90;;;;;;5014813;28;20037;-74
2021/11/10 04:42:01;;;;;;;37.28;17.15;;;0.60;99.90;;;;;;5017389;28;20021;-73
2021/11/10 04:44:27;;;;;;;32.03;16.08;;;0.60;99.90;;;;;;5035049;28;20053;-74
2021/11/10 04:46:55;;;;;;;27.15;15.18;;;0.60;99.90;;;;;;5033521;28;20234;-74
2021/11/10 04:49:21;;;;;;;31.27;16.30;;;0.60;99.90;;;;;;5030114;28;20241;-74
2021/11/10 04:51:46;;;;;;;28.08;16.05;;;0.60;99.90;;;;;;5012703;28;20038;-74
2021/11/10 04:54:17;;;;;;;30.40;18.10;;;0.60;99.90;;;;;;5013389;28;20149;-74
2021/11/10 04:56:43;;;;;;;35.25;17.70;;;0.60;99.90;;;;;;5013321;28;20561;-74
2021/11/10 04:59:08;;;;;;;30.77;16.70;;;0.50;99.90;;;;;;5013243;28;20104;-74
2021/11/10 05:01:37;;;;;;;33.40;16.08;;;0.50;99.90;;;;;;5011980;28;20049;-74
2021/11/10 05:04:04;;;;;;;36.67;18.38;;;0.40;99.90;;;;;;5012859;28;20029;-74
2021/11/10 05:06:31;;;;;;;30.95;17.38;;;0.30;99.90;;;;;;5026392;28;20037;-74
2021/11/10 05:08:57;;;;;;;34.25;17.48;;;0.40;99.90;;;;;;5011514;28;20060;-74
2021/11/10 05:11:23;;;;;;;41.20;18.10;;;0.40;99.90;;;;;;5011306;28;20084;-74
2021/11/10 05:13:50;;;;;;;37.78;19.10;;;0.40;99.90;;;;;;5012928;28;20447;-74
2021/11/10 05:16:17;;;;;;;37.53;18.77;;;0.40;99.90;;;;;;5013015;28;20090;-74
2021/11/10 05:18:43;;;;;;;32.53;16.75;;;0.40;99.90;;;;;;5013245;28;20076;-74
2021/11/10 05:21:09;;;;;;;27.60;15.13;;;0.40;99.90;;;;;;5014954;28;20030;-74
2021/11/10 05:23:35;;;;;;;32.70;16.60;;;0.30;99.90;;;;;;5014927;28;20104;-74
2021/11/10 05:26:00;;;;;;;35.35;17.40;;;0.40;99.90;;;;;;5014828;28;20100;-74
2021/11/10 05:28:26;;;;;;;33.10;15.35;;;0.30;99.90;;;;;;5014779;28;20026;-74
2021/11/10 05:30:52;;;;;;;32.50;15.95;;;0.30;99.90;;;;;;5014678;28;20034;-74
2021/11/10 05:33:19;;;;;;;38.63;18.42;;;0.30;99.90;;;;;;5014760;28;20018;-74
2021/11/10 05:35:44;;;;;;;31.60;15.23;;;0.30;99.90;;;;;;5014629;28;20022;-74
2021/11/10 05:38:10;;;;;;;28.48;14.07;;;0.30;99.90;;;;;;5014662;28;20042;-74
2021/11/10 05:40:36;;;;;;;33.88;14.88;;;0.20;99.90;;;;;;5014478;28;20022;-74
2021/11/10 05:43:03;;;;;;;28.33;15.82;;;0.10;99.90;;;;;;5014531;28;20029;-74
2021/11/10 05:45:29;;;;;;;28.75;15.43;;;0.10;99.90;;;;;;5032210;28;20017;-73
2021/11/10 05:47:54;;;;;;;28.05;14.27;;;0.10;99.90;;;;;;5034246;28;20084;-73
2021/11/10 05:50:20;;;;;;;30.98;14.73;;;0.00;99.90;;;;;;5030208;28;20387;-73
2021/11/10 05:52:46;;;;;;;31.38;15.43;;;0.00;99.90;;;;;;5027987;28;20487;-74
2021/11/10 05:55:14;;;;;;;35.03;15.95;;;0.00;99.90;;;;;;5030326;28;20025;-74
2021/11/10 05:57:40;;;;;;;27.42;14.73;;;0.00;99.90;;;;;;5031123;28;20030;-74
2021/11/10 06:00:09;;;;;;;27.45;13.85;;;0.00;99.90;;;;;;5030248;28;20029;-74
2021/11/10 06:02:35;;;;;;;30.95;15.00;;;0.00;99.90;;;;;;5031265;28;20041;-74
2021/11/10 06:05:01;;;;;;;33.63;15.63;;;0.00;99.90;;;;;;5032322;28;20123;-74
2021/11/10 06:07:26;;;;;;;32.80;15.70;;;-0.10;99.90;;;;;;5028738;28;20152;-74
2021/11/10 06:09:52;;;;;;;30.25;15.38;;;-0.10;99.90;;;;;;5029936;28;20092;-73
2021/11/10 06:12:17;;;;;;;30.95;16.30;;;0.00;99.90;;;;;;5030428;28;20013;-74
2021/11/10 06:14:43;;;;;;;28.10;13.88;;;0.00;99.90;;;;;;5045915;28;20495;-74
2021/11/10 06:17:09;;;;;;;32.38;15.77;;;0.00;99.90;;;;;;5030699;28;20471;-74
2021/11/10 06:19:35;;;;;;;30.33;13.77;;;0.00;99.90;;;;;;5029404;28;20166;-74
2021/11/10 06:22:00;;;;;;;32.90;18.48;;;0.00;99.90;;;;;;5033048;28;20493;-74
2021/11/10 06:24:27;;;;;;;30.75;15.77;;;0.10;99.90;;;;;;5033482;28;20478;-74
2021/11/10 06:26:52;;;;;;;27.98;15.15;;;0.10;99.90;;;;;;5033726;28;20022;-74
2021/11/10 06:29:18;;;;;;;34.67;17.48;;;0.20;99.90;;;;;;5048788;28;20021;-74
2021/11/10 06:31:44;;;;;;;28.10;15.35;;;0.20;99.90;;;;;;5033361;28;20476;-74
2021/11/10 06:34:09;;;;;;;46.17;19.50;;;0.20;99.90;;;;;;5033352;28;20037;-74
2021/11/10 06:36:35;;;;;;;28.83;14.93;;;0.20;99.90;;;;;;5033368;28;20402;-74
2021/11/10 06:39:01;;;;;;;34.35;15.65;;;0.30;99.90;;;;;;5048621;28;20021;-74
2021/11/10 06:41:27;;;;;;;28.00;15.73;;;0.40;99.90;;;;;;5032749;28;20057;-74
2021/11/10 06:43:52;;;;;;;31.40;16.70;;;0.40;99.90;;;;;;5031862;28;20021;-74
2021/11/10 06:46:18;;;;;;;37.03;18.92;;;0.50;99.90;;;;;;5033116;28;20028;-74
2021/11/10 06:48:44;;;;;;;34.60;19.50;;;0.70;99.90;;;;;;5033134;28;20022;-74
2021/11/10 06:51:14;;;;;;;40.33;20.27;;;0.80;99.90;;;;;;5032961;28;20037;-74
2021/11/10 06:53:40;;;;;;;41.60;20.75;;;0.90;99.90;;;;;;5031782;28;20104;-74
2021/11/10 06:56:06;;;;;;;39.35;21.52;;;1.10;99.90;;;;;;5032956;28;20036;-74
2021/11/10 06:58:32;;;;;;;35.72;19.95;;;1.20;99.90;;;;;;5032933;28;20021;-74
2021/11/10 07:00:58;;;;;;;40.92;21.85;;;1.30;99.90;;;;;;5032924;28;20100;-74
2021/11/10 07:03:24;;;;;;;33.22;19.00;;;1.40;99.90;;;;;;5032904;28;20025;-74
2021/11/10 07:05:50;;;;;;;34.97;18.88;;;1.40;99.90;;;;;;5032877;28;20080;-74
2021/11/10 07:08:16;;;;;;;27.65;15.27;;;1.60;99.90;;;;;;5032967;28;20020;-74
2021/11/10 07:10:42;;;;;;;26.58;14.80;;;1.70;99.90;;;;;;5031810;28;20037;-74
2021/11/10 07:13:08;;;;;;;26.50;14.95;;;1.80;99.90;;;;;;5032413;28;20026;-74
2021/11/10 07:15:34;;;;;;;31.42;15.68;;;1.80;99.90;;;;;;5032752;28;20375;-74
2021/11/10 07:17:59;;;;;;;29.95;15.65;;;2.00;99.90;;;;;;5032851;28;20021;-74
2021/11/10 07:20:25;;;;;;;27.42;14.45;;;2.10;99.90;;;;;;5032757;28;20025;-74
2021/11/10 07:22:53;;;;;;;24.38;14.30;;;2.20;99.90;;;;;;5031478;28;20509;-74
2021/11/10 07:25:18;;;;;;;28.70;14.63;;;2.30;99.90;;;;;;5032767;28;20467;-74
2021/11/10 07:27:44;;;;;;;32.90;18.23;;;2.50;99.90;;;;;;5032757;28;20028;-74
2021/11/10 07:30:12;;;;;;;30.20;16.30;;;2.60;99.90;;;;;;5031264;28;20038;-74
2021/11/10 07:32:38;;;;;;;33.42;16.42;;;2.70;99.90;;;;;;5031361;28;20040;-74
2021/11/10 07:35:05;;;;;;;29.15;16.02;;;2.80;99.90;;;;;;5031358;28;20036;-74
2021/11/10 07:37:31;;;;;;;28.60;16.20;;;3.00;99.90;;;;;;5032581;28;20407;-74
2021/11/10 07:39:57;;;;;;;25.90;15.23;;;3.10;99.90;;;;;;5031311;28;20028;-74
2021/11/10 07:42:23;;;;;;;25.55;13.93;;;3.20;99.90;;;;;;5031349;28;20021;-74
2021/11/10 07:44:53;;;;;;;30.05;14.98;;;3.40;99.90;;;;;;5032587;28;20100;-74
2021/11/10 07:47:21;;;;;;;25.58;14.85;;;3.50;99.90;;;;;;5032769;28;20026;-74
2021/11/10 07:49:47;;;;;;;21.70;14.18;;;3.70;99.90;;;;;;5031098;28;20022;-74
2021/11/10 07:52:14;;;;;;;23.73;13.93;;;3.80;99.90;;;;;;5033001;28;20033;-74
2021/11/10 07:54:40;;;;;;;22.42;12.93;;;4.00;99.90;;;;;;5036282;28;20037;-74
2021/11/10 07:57:06;;;;;;;20.50;11.82;;;4.10;99.90;;;;;;5036374;28;20083;-74
2021/11/10 07:59:32;;;;;;;17.58;10.63;;;4.30;99.90;;;;;;5036151;28;20017;-74
2021/11/10 08:01:58;;;;;;;19.08;11.13;;;4.40;99.90;;;;;;5036091;28;20036;-74
2021/11/10 08:04:23;;;;;;;19.27;10.07;;;4.60;99.90;;;;;;5036099;28;20064;-74
2021/11/10 08:06:49;;;;;;;19.30;10.82;;;4.70;99.90;;;;;;5036095;28;20096;-74
2021/11/10 08:09:15;;;;;;;16.30;8.82;;;4.90;99.90;;;;;;5035806;28;20494;-74
2021/11/10 08:11:40;;;;;;;14.15;9.73;;;5.10;99.90;;;;;;5034686;28;20037;-74
2021/11/10 08:14:06;;;;;;;12.68;8.55;;;5.20;99.90;;;;;;5035837;28;20044;-74
2021/11/10 08:16:32;;;;;;;13.25;9.48;;;5.40;99.90;;;;;;5035954;28;20100;-74
2021/11/10 08:18:58;;;;;;;16.23;8.82;;;5.50;99.90;;;;;;5035660;28;20107;-74
2021/11/10 08:21:24;;;;;;;13.63;8.05;;;5.70;99.90;;;;;;5035132;28;20037;-74
2021/11/10 08:23:50;;;;;;;10.02;7.28;;;5.80;99.90;;;;;;5035519;28;20026;-74
2021/11/10 08:26:16;;;;;;;16.08;8.38;;;6.00;99.90;;;;;;5035768;28;20463;-74
2021/11/10 08:28:42;;;;;;;14.43;8.23;;;6.10;99.90;;;;;;5035725;28;20026;-74
2021/11/10 08:31:08;;;;;;;10.32;7.40;;;6.20;99.90;;;;;;5035641;28;20084;-74
2021/11/10 08:33:34;;;;;;;14.68;9.63;;;6.30;99.90;;;;;;5035625;28;20017;-74
2021/11/10 08:35:59;;;;;;;10.88;6.95;;;6.40;99.90;;;;;;5035551;28;20145;-74
2021/11/10 08:38:27;;;;;;;9.48;7.05;;;6.60;99.90;;;;;;5035613;28;20144;-74
2021/11/10 08:40:53;;;;;;;11.50;7.10;;;6.60;99.90;;;;;;5035517;28;20057;-74
2021/11/10 08:43:19;;;;;;;12.13;7.15;;;6.70;99.90;;;;;;5035522;28;20056;-74
2021/11/10 08:45:47;;;;;;;12.95;7.15;;;6.80;99.90;;;;;;5035344;28;20022;-74
2021/11/10 08:48:13;;;;;;;11.48;7.05;;;6.90;99.90;;;;;;5035188;28;20024;-74
2021/11/10 08:50:43;;;;;;;10.80;6.70;;;7.00;99.90;;;;;;5035214;28;20033;-74
2021/11/10 08:53:11;;;;;;;13.18;8.18;;;7.10;99.90;;;;;;5035348;28;20471;-74
2021/11/10 08:55:37;;;;;;;11.13;6.78;;;7.20;99.90;;;;;;5035256;28;20033;-74
2021/11/10 08:58:04;;;;;;;8.98;6.88;;;7.30;99.90;;;;;;5035243;28;20034;-74
2021/11/10 09:00:34;;;;;;;15.43;7.75;;;7.40;99.90;;;;;;5035018;28;20029;-74
2021/11/10 09:02:59;;;;;;;19.20;7.97;;;7.50;99.90;;;;;;5034819;28;20025;-74
2021/11/10 09:05:25;;;;;;;16.38;9.10;;;7.60;99.90;;;;;;5035028;28;20026;-74
2021/11/10 09:07:51;;;;;;;20.33;10.60;;;7.70;99.90;;;;;;5035050;28;20105;-75
2021/11/10 09:10:18;;;;;;;20.10;11.90;;;7.80;99.90;;;;;;5035058;28;20498;-74
2021/11/10 09:12:46;;;;;;;24.48;10.63;;;7.90;99.90;;;;;;5034845;28;20091;-74
2021/11/10 09:15:14;;;;;;;15.43;9.77;;;8.00;99.90;;;;;;5034917;28;20033;-74
2021/11/10 09:17:41;;;;;;;13.93;7.93;;;8.10;99.90;;;;;;5034307;28;20053;-74
2021/11/10 09:20:15;;;;;;;11.27;5.65;;;8.20;97.00;;;;;;5033250;28;20036;-74
2021/11/10 09:22:41;;;;;;;8.77;5.70;;;8.30;94.80;;;;;;5034720;28;20025;-74
2021/11/10 09:25:09;;;;;;;16.55;7.88;;;8.30;88.90;;;;;;5034693;28;20048;-74
2021/11/10 09:27:35;;;;;;;13.18;6.38;;;8.40;89.90;;;;;;5034591;28;20100;-74
2021/11/10 09:30:04;;;;;;;13.13;6.47;;;8.50;91.00;;;;;;5034493;28;20033;-74
2021/11/10 09:32:31;;;;;;;7.45;5.35;;;8.60;88.20;;;;;;5034578;28;20514;-74
2021/11/10 09:34:57;;;;;;;8.50;4.93;;;8.70;85.60;;;;;;5033235;28;20068;-74
2021/11/10 09:37:22;;;;;;;9.32;5.15;;;8.90;84.70;;;;;;5034434;28;20421;-74
2021/11/10 09:39:48;;;;;;;10.40;5.05;;;8.90;84.40;;;;;;5034414;28;20026;-74
2021/11/10 09:42:14;;;;;;;11.48;5.95;;;9.00;85.60;;;;;;5034315;28;20028;-74
2021/11/10 09:44:40;;;;;;;9.10;5.60;;;9.20;86.40;;;;;;5032964;28;20041;-74
2021/11/10 09:47:07;;;;;;;9.38;5.82;;;9.20;84.10;;;;;;5034310;28;20040;-75
2021/11/10 09:49:33;;;;;;;10.07;5.75;;;9.20;83.70;;;;;;5034141;28;20486;-75
2021/11/10 09:52:00;;;;;;;10.10;5.63;;;9.30;83.90;;;;;;5034380;28;20116;-75
2021/11/10 09:54:26;;;;;;;8.90;5.38;;;9.40;83.30;;;;;;5034099;28;20041;-74
2021/11/10 09:56:54;;;;;;;10.48;5.32;;;9.40;81.60;;;;;;5034051;28;20127;-74
2021/11/10 09:59:20;;;;;;;10.23;5.22;;;9.50;80.40;;;;;;5032774;28;20018;-74
2021/11/10 10:01:47;;;;;;;6.15;4.07;;;9.50;79.40;;;;;;5034075;28;20022;-74
2021/11/10 10:04:13;;;;;;;5.38;3.42;;;9.60;78.10;;;;;;5033946;28;20053;-74
2021/11/10 10:06:39;;;;;;;7.82;3.88;;;9.60;77.30;;;;;;5033899;28;20022;-74
2021/11/10 10:09:05;;;;;;;8.25;4.45;;;9.60;75.70;;;;;;5028983;28;20027;-74
2021/11/10 10:11:31;;;;;;;6.43;4.05;;;9.70;76.00;;;;;;5024221;28;20111;-74
2021/11/10 10:13:57;;;;;;;5.85;3.58;;;9.70;76.60;;;;;;5029959;28;20392;-74
2021/11/10 10:16:25;;;;;;;2.95;2.65;;;9.80;73.90;;;;;;5013256;28;20100;-74
2021/11/10 10:19:02;;;;;;;3.08;2.45;;;9.80;70.60;;;;;;5012688;28;20014;-74
2021/11/10 10:21:28;;;;;;;7.20;3.03;;;9.90;70.30;;;;;;5013487;28;20022;-75
2021/11/10 10:23:53;;;;;;;3.03;2.50;;;10.00;69.00;;;;;;5017089;28;20022;-74
2021/11/10 10:26:22;;;;;;;5.22;3.10;;;10.00;68.90;;;;;;5033411;28;20461;-74
2021/11/10 10:28:54;;;;;;;3.63;3.00;;;10.10;68.70;;;;;;5032129;28;20030;-75
2021/11/10 10:31:25;;;;;;;4.47;2.70;;;10.10;68.90;;;;;;5033407;28;20376;-74
2021/11/10 10:33:54;;;;;;;3.03;2.13;;;10.20;67.80;;;;;;5033226;28;20463;-74
2021/11/10 10:36:22;;;;;;;3.20;2.22;;;10.20;65.10;;;;;;5031644;28;20606;-74
2021/11/10 10:38:57;;;;;;;2.30;2.10;;;10.30;62.10;;;;;;5031601;28;20049;-74
2021/11/10 10:41:32;;;;;;;2.65;2.45;;;10.30;60.10;;;;;;5032205;28;20029;-74
2021/11/10 10:44:20;;;;;;;2.03;1.80;;;10.30;59.90;;;;;;5031206;28;20486;-74
2021/11/10 10:47:03;;;;;;;2.58;1.92;;;10.40;61.60;;;;;;5029786;28;20014;-74
2021/11/10 10:49:43;;;;;;;4.75;2.45;;;10.40;61.70;;;;;;5023104;28;20026;-74
2021/11/10 10:52:11;;;;;;;4.00;2.05;;;10.50;61.30;;;;;;5010651;28;20458;-74
2021/11/10 10:54:38;;;;;;;4.10;2.03;;;10.50;60.30;;;;;;5010847;28;20022;-74
2021/11/10 10:57:05;;;;;;;2.78;2.58;;;10.60;60.10;;;;;;5010282;28;20037;-74
2021/11/10 10:59:31;;;;;;;3.08;1.90;;;10.60;57.80;;;;;;5009881;28;20052;-75
2021/11/10 11:01:58;;;;;;;1.88;1.67;;;10.60;58.20;;;;;;5011806;28;20041;-74
2021/11/10 11:04:31;;;;;;;2.97;1.75;;;10.70;56.60;;;;;;5011339;28;20111;-74
2021/11/10 11:07:12;;;;;;;1.95;1.75;;;10.80;57.20;;;;;;5012419;28;20033;-74
2021/11/10 11:09:49;;;;;;;4.07;2.83;;;10.80;56.80;;;;;;5012224;28;20034;-74
2021/11/10 11:12:26;;;;;;;4.32;2.20;;;10.80;58.10;;;;;;5012773;28;20080;-75
2021/11/10 11:15:25;;;;;;;2.10;1.67;;;10.90;57.30;;;;;;5013172;28;20106;-74
2021/11/10 11:17:55;;;;;;;3.80;1.90;;;10.90;57.10;;;;;;5011895;28;20518;-74
2021/11/10 11:20:30;;;;;;;3.05;2.00;;;11.00;55.30;;;;;;5013032;28;20018;-74
2021/11/10 11:22:57;;;;;;;3.20;2.17;;;11.00;55.80;;;;;;5013128;28;20391;-74
2021/11/10 11:25:40;;;;;;;4.30;2.17;;;11.00;55.70;;;;;;5011742;28;20053;-74
2021/11/10 11:28:16;;;;;;;2.63;2.40;;;11.00;55.70;;;;;;5016800;28;20022;-74
2021/11/10 11:30:41;;;;;;;5.13;2.40;;;11.00;55.50;;;;;;5015579;28;20038;-74
2021/11/10 11:33:11;;;;;;;4.05;2.50;;;11.00;56.30;;;;;;5016996;28;20022;-74
2021/11/10 11:35:48;;;;;;;3.28;2.17;;;11.00;57.20;;;;;;5016909;28;20037;-74
2021/11/10 11:38:20;;;;;;;3.70;2.67;;;11.00;57.30;;;;;;5017055;28;20025;-74
2021/11/10 11:40:49;;;;;;;2.00;1.73;;;11.10;56.30;;;;;;5016786;28;20026;-74
2021/11/10 11:43:17;;;;;;;3.83;2.20;;;11.10;55.50;;;;;;5016749;28;20037;-74
2021/11/10 11:45:51;;;;;;;4.45;2.38;;;11.20;56.00;;;;;;5015501;28;20029;-74
2021/11/10 11:48:18;;;;;;;4.63;2.85;;;11.20;56.30;;;;;;5016848;28;20026;-74
2021/11/10 11:50:45;;;;;;;5.60;2.92;;;11.20;57.60;;;;;;5016529;28;20480;-74
2021/11/10 11:53:11;;;;;;;4.35;2.58;;;11.20;58.20;;;;;;5016665;28;20128;-74
2021/11/10 11:55:58;;;;;;;4.28;2.90;;;11.20;57.00;;;;;;5016529;28;20030;-74
2021/11/10 11:58:38;;;;;;;5.90;3.80;;;11.30;57.40;;;;;;5016584;28;20037;-74
2021/11/10 12:01:11;;;;;;;4.68;3.75;;;11.30;58.20;;;;;;5016526;28;20022;-75
2021/11/10 12:03:40;;;;;;;2.60;2.30;;;11.30;58.20;;;;;;5016554;28;20449;-74
2021/11/10 12:06:06;;;;;;;2.65;2.42;;;11.30;55.70;;;;;;5016385;28;20380;-74
2021/11/10 12:08:44;;;;;;;5.68;3.55;;;11.30;56.20;;;;;;5016333;28;20049;-75
2021/11/10 12:11:34;;;;;;;5.13;2.40;;;11.20;56.20;;;;;;5016174;28;20417;-74
2021/11/10 12:14:06;;;;;;;6.68;2.05;;;11.30;55.10;;;;;;5016274;28;20022;-74
2021/11/10 12:17:04;;;;;;;6.20;3.30;;;11.30;54.90;;;;;;5016241;28;20360;-75
2021/11/10 12:19:38;;;;;;;9.02;4.03;;;11.20;55.50;;;;;;5016192;28;20109;-75
2021/11/10 12:22:18;;;;;;;4.45;2.42;;;11.20;57.40;;;;;;5014905;28;20033;-74
2021/11/10 12:24:48;;;;;;;3.88;2.58;;;11.30;55.70;;;;;;5014794;28;20375;-74
2021/11/10 12:27:30;;;;;;;2.20;2.00;;;11.30;55.50;;;;;;5016120;28;20026;-74
2021/11/10 12:30:11;;;;;;;3.83;2.35;;;11.30;55.30;;;;;;5014753;28;20056;-74
2021/11/10 12:32:37;;;;;;;4.85;2.58;;;11.30;55.50;;;;;;5015818;28;20519;-74
2021/11/10 12:35:07;;;;;;;3.45;2.80;;;11.40;55.20;;;;;;5014313;28;20065;-74
2021/11/10 12:37:39;;;;;;;4.57;2.75;;;11.30;55.90;;;;;;5015670;28;20033;-74
2021/11/10 12:40:35;;;;;;;3.83;3.00;;;11.40;55.00;;;;;;5015417;28;20038;-74
2021/11/10 12:43:00;;;;;;;3.63;2.85;;;11.40;55.80;;;;;;5015790;28;20387;-74